createdAt,value
2018-08-18T00:00:51.375Z,0.00
2018-08-18T00:01:51.396Z,0.00
2018-08-18T00:03:44.327Z,0.00
2018-08-18T00:04:44.326Z,0.00
2018-08-18T00:06:37.236Z,0.00
2018-08-18T00:07:37.255Z,0.00
2018-08-18T00:09:30.180Z,0.00
2018-08-18T00:10:30.227Z,0.00
2018-08-18T00:12:23.109Z,0.00
2018-08-18T00:13:23.108Z,0.00
2018-08-18T00:15:16.018Z,0.00
2018-08-18T00:16:16.038Z,0.00
2018-08-18T00:18:08.963Z,0.00
2018-08-18T00:19:08.964Z,0.00
2018-08-18T00:21:01.879Z,0.00
2018-08-18T00:22:01.892Z,0.00
2018-08-18T00:23:54.817Z,0.00
2018-08-18T00:24:54.824Z,0.00
2018-08-18T00:26:47.724Z,0.00
2018-08-18T00:27:47.744Z,0.00
2018-08-18T00:29:40.671Z,0.00
2018-08-18T00:30:40.681Z,0.00
2018-08-18T00:32:33.598Z,0.00
2018-08-18T00:33:33.602Z,0.00
2018-08-18T00:35:26.510Z,0.00
2018-08-18T00:36:26.529Z,0.00
2018-08-18T00:38:19.458Z,0.00
2018-08-18T00:39:19.460Z,0.00
2018-08-18T00:41:12.364Z,0.00
2018-08-18T00:42:12.386Z,0.00
2018-08-18T00:44:05.312Z,0.00
2018-08-18T00:45:05.313Z,0.00
2018-08-18T00:46:58.223Z,0.00
2018-08-18T00:47:58.243Z,0.00
2018-08-18T00:49:51.180Z,0.00
2018-08-18T00:50:51.187Z,0.00
2018-08-18T00:52:44.104Z,0.00
2018-08-18T00:53:44.104Z,0.00
2018-08-18T00:55:37.012Z,0.00
2018-08-18T00:56:37.034Z,0.00
2018-08-18T00:58:29.960Z,0.00
2018-08-18T00:59:29.960Z,0.00
2018-08-18T01:01:22.868Z,0.00
2018-08-18T01:02:22.888Z,0.00
2018-08-18T01:04:15.817Z,0.00
2018-08-18T01:05:15.816Z,0.00
2018-08-18T01:07:08.725Z,0.00
2018-08-18T01:08:08.745Z,0.00
2018-08-18T01:10:01.680Z,0.00
2018-08-18T01:11:01.810Z,0.00
2018-08-18T01:12:54.673Z,0.00
2018-08-18T01:13:54.651Z,0.00
2018-08-18T01:15:47.506Z,0.00
2018-08-18T01:16:47.527Z,0.00
2018-08-18T01:18:40.453Z,0.00
2018-08-18T01:19:40.454Z,0.00
2018-08-18T01:21:33.386Z,0.00
2018-08-18T01:22:33.385Z,0.00
2018-08-18T01:24:26.315Z,0.00
2018-08-18T01:25:26.312Z,0.00
2018-08-18T01:27:19.217Z,0.00
2018-08-18T01:28:19.236Z,0.00
2018-08-18T01:30:12.164Z,0.00
2018-08-18T01:31:12.162Z,0.00
2018-08-18T01:33:05.103Z,0.00
2018-08-18T01:34:05.102Z,0.00
2018-08-18T01:35:58.003Z,0.00
2018-08-18T01:36:58.025Z,0.00
2018-08-18T01:38:50.953Z,0.00
2018-08-18T01:39:50.953Z,0.00
2018-08-18T01:41:43.855Z,0.00
2018-08-18T01:42:43.878Z,0.00
2018-08-18T01:44:36.806Z,0.00
2018-08-18T01:45:36.806Z,0.00
2018-08-18T01:47:29.720Z,0.00
2018-08-18T01:48:29.734Z,0.00
2018-08-18T01:50:22.658Z,0.00
2018-08-18T01:51:22.656Z,0.00
2018-08-18T01:53:15.584Z,0.00
2018-08-18T01:54:15.582Z,0.00
2018-08-18T01:56:08.487Z,0.00
2018-08-18T01:57:08.507Z,0.00
2018-08-18T01:59:01.446Z,0.00
2018-08-18T02:00:01.446Z,0.00
2018-08-18T02:01:54.349Z,0.00
2018-08-18T02:02:54.367Z,0.00
2018-08-18T02:04:47.290Z,0.00
2018-08-18T02:05:47.294Z,0.00
2018-08-18T02:07:40.200Z,0.00
2018-08-18T02:08:40.216Z,0.00
2018-08-18T02:10:33.144Z,0.00
2018-08-18T02:11:33.143Z,0.00
2018-08-18T02:13:26.064Z,0.00
2018-08-18T02:14:26.064Z,0.00
2018-08-18T02:16:18.972Z,0.00
2018-08-18T02:17:18.990Z,0.00
2018-08-18T02:19:11.917Z,0.00
2018-08-18T02:20:11.917Z,0.00
2018-08-18T02:22:04.822Z,0.00
2018-08-18T02:23:04.843Z,0.00
2018-08-18T02:24:57.763Z,0.00
2018-08-18T02:25:57.766Z,0.00
2018-08-18T02:27:50.670Z,0.00
2018-08-18T02:28:50.688Z,0.00
2018-08-18T02:30:43.618Z,0.00
2018-08-18T02:31:43.613Z,0.00
2018-08-18T02:33:36.541Z,0.00
2018-08-18T02:34:36.536Z,0.00
2018-08-18T02:36:29.445Z,0.00
2018-08-18T02:37:29.465Z,0.00
2018-08-18T02:39:22.393Z,0.00
2018-08-18T02:40:22.393Z,0.00
2018-08-18T02:42:15.295Z,0.00
2018-08-18T02:43:15.314Z,0.00
2018-08-18T02:45:08.262Z,0.00
2018-08-18T02:46:08.238Z,0.00
2018-08-18T02:48:01.146Z,0.00
2018-08-18T02:49:01.166Z,0.00
2018-08-18T02:50:54.090Z,0.00
2018-08-18T02:51:54.089Z,0.00
2018-08-18T02:53:47.010Z,0.00
2018-08-18T02:54:47.012Z,0.00
2018-08-18T02:56:39.920Z,0.00
2018-08-18T02:57:39.939Z,0.00
2018-08-18T02:59:32.869Z,0.00
2018-08-18T03:00:32.866Z,0.00
2018-08-18T03:02:25.776Z,0.00
2018-08-18T03:03:25.799Z,0.00
2018-08-18T03:05:18.717Z,0.00
2018-08-18T03:06:18.715Z,0.00
2018-08-18T03:08:11.638Z,0.00
2018-08-18T03:09:11.658Z,0.00
2018-08-18T03:11:04.584Z,0.00
2018-08-18T03:12:04.583Z,0.00
2018-08-18T03:13:57.506Z,0.00
2018-08-18T03:14:57.505Z,0.00
2018-08-18T03:16:50.409Z,0.00
2018-08-18T03:17:50.431Z,0.00
2018-08-18T03:19:43.356Z,0.00
2018-08-18T03:20:43.354Z,0.00
2018-08-18T03:22:36.260Z,0.00
2018-08-18T03:23:36.278Z,0.00
2018-08-18T03:25:29.219Z,0.00
2018-08-18T03:26:29.205Z,0.00
2018-08-18T03:28:22.107Z,0.00
2018-08-18T03:29:22.130Z,0.00
2018-08-18T03:31:15.050Z,0.00
2018-08-18T03:32:15.051Z,0.00
2018-08-18T03:34:07.974Z,0.00
2018-08-18T03:35:07.975Z,0.00
2018-08-18T03:37:00.882Z,0.00
2018-08-18T03:38:00.898Z,0.00
2018-08-18T03:39:53.826Z,4.00
2018-08-18T03:40:53.821Z,4.00
2018-08-18T03:42:46.743Z,0.00
2018-08-18T03:43:46.763Z,4.00
2018-08-18T03:45:39.687Z,4.00
2018-08-18T03:46:39.689Z,4.00
2018-08-18T03:48:32.591Z,8.00
2018-08-18T03:49:32.609Z,8.00
2018-08-18T03:51:25.534Z,12.00
2018-08-18T03:52:25.535Z,12.00
2018-08-18T03:54:18.455Z,20.00
2018-08-18T03:55:18.454Z,24.00
2018-08-18T03:57:11.356Z,28.00
2018-08-18T03:58:11.382Z,32.00
2018-08-18T04:00:04.305Z,44.00
2018-08-18T04:01:04.302Z,48.00
2018-08-18T04:02:57.204Z,64.00
2018-08-18T04:03:57.225Z,68.00
2018-08-18T04:05:50.145Z,88.00
2018-08-18T04:06:50.144Z,96.00
2018-08-18T04:08:43.046Z,120.00
2018-08-18T04:09:43.064Z,132.00
2018-08-18T04:11:35.995Z,160.00
2018-08-18T04:12:35.993Z,176.00
2018-08-18T04:14:28.918Z,208.00
2018-08-18T04:15:28.917Z,228.00
2018-08-18T04:17:21.953Z,264.00
2018-08-18T04:18:21.972Z,288.00
2018-08-18T04:20:15.011Z,332.00
2018-08-18T04:21:14.976Z,356.00
2018-08-18T04:23:07.883Z,408.00
2018-08-18T04:24:07.898Z,436.00
2018-08-18T04:26:00.836Z,496.00
2018-08-18T04:27:00.821Z,536.00
2018-08-18T04:28:53.724Z,600.00
2018-08-18T04:29:53.743Z,636.00
2018-08-18T04:31:46.675Z,716.00
2018-08-18T04:32:46.671Z,756.00
2018-08-18T04:34:39.655Z,836.00
2018-08-18T04:35:39.591Z,880.00
2018-08-18T04:37:32.702Z,972.00
2018-08-18T04:38:32.786Z,1024.00
2018-08-18T04:40:25.681Z,1120.00
2018-08-18T04:41:25.643Z,1172.00
2018-08-18T04:43:18.558Z,1276.00
2018-08-18T04:44:18.582Z,1328.00
2018-08-18T04:46:11.506Z,1436.00
2018-08-18T04:47:11.502Z,1488.00
2018-08-18T04:49:04.406Z,1596.00
2018-08-18T04:50:04.425Z,1652.00
2018-08-18T04:51:57.365Z,1772.00
2018-08-18T04:52:57.353Z,1832.00
2018-08-18T04:54:51.280Z,1924.00
2018-08-18T04:55:51.281Z,1984.00
2018-08-18T04:57:44.184Z,2100.00
2018-08-18T04:58:44.202Z,2160.00
2018-08-18T05:00:37.132Z,2300.00
2018-08-18T05:01:37.130Z,2356.00
2018-08-18T05:03:30.209Z,2476.00
2018-08-18T05:04:30.057Z,2540.00
2018-08-18T05:06:22.985Z,2648.00
2018-08-18T05:07:22.984Z,2680.00
2018-08-18T05:09:15.894Z,2788.00
2018-08-18T05:10:15.916Z,2828.00
2018-08-18T05:12:08.988Z,2924.00
2018-08-18T05:13:08.991Z,2964.00
2018-08-18T05:15:02.217Z,3036.00
2018-08-18T05:16:02.143Z,3064.00
2018-08-18T05:17:55.047Z,3140.00
2018-08-18T05:18:55.095Z,3200.00
2018-08-18T05:20:48.159Z,3248.00
2018-08-18T05:21:48.160Z,3284.00
2018-08-18T05:23:41.109Z,3364.00
2018-08-18T05:24:41.089Z,3388.00
2018-08-18T05:26:34.017Z,3940.00
2018-08-18T05:27:34.015Z,3628.00
2018-08-18T05:29:27.097Z,3204.00
2018-08-18T05:30:27.117Z,3124.00
2018-08-18T05:32:20.044Z,3244.00
2018-08-18T05:33:20.043Z,2956.00
2018-08-18T05:35:12.975Z,3364.00
2018-08-18T05:36:12.976Z,3460.00
2018-08-18T05:38:05.882Z,3488.00
2018-08-18T05:39:05.905Z,3480.00
2018-08-18T05:40:58.827Z,3548.00
2018-08-18T05:41:58.828Z,3620.00
2018-08-18T05:43:51.758Z,3708.00
2018-08-18T05:44:51.777Z,3792.00
2018-08-18T05:46:44.710Z,3648.00
2018-08-18T05:47:44.788Z,3612.00
2018-08-18T05:49:37.611Z,3788.00
2018-08-18T05:50:37.633Z,3880.00
2018-08-18T05:52:30.563Z,4044.00
2018-08-18T05:53:30.559Z,4120.00
2018-08-18T05:55:23.490Z,4432.00
2018-08-18T05:56:23.488Z,4296.00
2018-08-18T05:58:16.402Z,4108.00
2018-08-18T05:59:16.422Z,4180.00
2018-08-18T06:01:09.359Z,4068.00
2018-08-18T06:02:09.352Z,4112.00
2018-08-18T06:04:02.258Z,4248.00
2018-08-18T06:05:02.279Z,4340.00
2018-08-18T06:06:55.212Z,4648.00
2018-08-18T06:07:55.207Z,5636.00
2018-08-18T06:09:48.124Z,11368.00
2018-08-18T06:10:48.140Z,13544.00
2018-08-18T06:12:41.216Z,13848.00
2018-08-18T06:13:41.217Z,14036.00
2018-08-18T06:15:34.146Z,14592.00
2018-08-18T06:16:34.150Z,14784.00
2018-08-18T06:18:27.055Z,16320.00
2018-08-18T06:19:27.078Z,16128.00
2018-08-18T06:21:20.007Z,15872.00
2018-08-18T06:22:20.010Z,16704.00
2018-08-18T06:24:12.921Z,16928.00
2018-08-18T06:25:12.943Z,17088.00
2018-08-18T06:27:05.879Z,17984.00
2018-08-18T06:28:05.891Z,17984.00
2018-08-18T06:29:58.800Z,18176.00
2018-08-18T06:30:58.825Z,18592.00
2018-08-18T06:32:51.758Z,18912.00
2018-08-18T06:33:51.769Z,19104.00
2018-08-18T06:35:44.708Z,19072.00
2018-08-18T06:36:44.709Z,19328.00
2018-08-18T06:38:37.798Z,20096.00
2018-08-18T06:39:37.822Z,20256.00
2018-08-18T06:41:31.806Z,21376.00
2018-08-18T06:42:31.776Z,21504.00
2018-08-18T06:44:24.711Z,21824.00
2018-08-18T06:45:24.727Z,22272.00
2018-08-18T06:47:17.669Z,22208.00
2018-08-18T06:48:17.676Z,22208.00
2018-08-18T06:50:10.597Z,23040.00
2018-08-18T06:51:10.624Z,23360.00
2018-08-18T06:53:03.574Z,23488.00
2018-08-18T06:54:03.584Z,24352.00
2018-08-18T06:55:56.531Z,24032.00
2018-08-18T06:56:56.587Z,23776.00
2018-08-18T06:58:49.457Z,23840.00
2018-08-18T06:59:56.609Z,24128.00
2018-08-18T07:01:42.450Z,24064.00
2018-08-18T07:02:42.442Z,24768.00
2018-08-18T07:04:35.369Z,9668.00
2018-08-18T07:05:35.398Z,5516.00
2018-08-18T07:07:28.349Z,4864.00
2018-08-18T07:08:28.358Z,4856.00
2018-08-18T07:10:21.282Z,4848.00
2018-08-18T07:11:21.309Z,4832.00
2018-08-18T07:13:14.256Z,4828.00
2018-08-18T07:14:14.259Z,4808.00
2018-08-18T07:16:07.208Z,4784.00
2018-08-18T07:17:07.215Z,4756.00
2018-08-18T07:19:00.136Z,4736.00
2018-08-18T07:20:00.162Z,4720.00
2018-08-18T07:21:53.114Z,4664.00
2018-08-18T07:22:53.108Z,4644.00
2018-08-18T07:24:46.028Z,4616.00
2018-08-18T07:25:46.054Z,4600.00
2018-08-18T07:27:38.987Z,4580.00
2018-08-18T07:28:39.074Z,4580.00
2018-08-18T07:30:31.914Z,4556.00
2018-08-18T07:31:31.939Z,4560.00
2018-08-18T07:33:24.874Z,4556.00
2018-08-18T07:34:24.886Z,4556.00
2018-08-18T07:36:18.025Z,4544.00
2018-08-18T07:37:18.139Z,4540.00
2018-08-18T07:39:11.024Z,4536.00
2018-08-18T07:40:10.970Z,4544.00
2018-08-18T07:42:04.899Z,4544.00
2018-08-18T07:43:04.901Z,4544.00
2018-08-18T07:44:57.818Z,4508.00
2018-08-18T07:45:57.848Z,4492.00
2018-08-18T07:47:50.778Z,4472.00
2018-08-18T07:48:50.782Z,4488.00
2018-08-18T07:50:43.695Z,4508.00
2018-08-18T07:51:43.720Z,4488.00
2018-08-18T07:53:36.917Z,4472.00
2018-08-18T07:54:36.875Z,4476.00
2018-08-18T07:56:30.031Z,4484.00
2018-08-18T07:57:30.037Z,4488.00
2018-08-18T07:59:22.946Z,4500.00
2018-08-18T08:00:22.978Z,4496.00
2018-08-18T08:02:16.051Z,4540.00
2018-08-18T08:03:16.058Z,4568.00
2018-08-18T08:05:09.123Z,4572.00
2018-08-18T08:06:09.005Z,4588.00
2018-08-18T08:08:02.153Z,4648.00
2018-08-18T08:09:02.156Z,4688.00
2018-08-18T08:10:55.288Z,4764.00
2018-08-18T08:11:55.312Z,4748.00
2018-08-18T08:13:48.259Z,4756.00
2018-08-18T08:14:48.255Z,4772.00
2018-08-18T08:16:41.190Z,4720.00
2018-08-18T08:17:41.192Z,4720.00
2018-08-18T08:19:34.112Z,4760.00
2018-08-18T08:20:34.140Z,4772.00
2018-08-18T08:22:27.080Z,4756.00
2018-08-18T08:23:27.084Z,4736.00
2018-08-18T08:25:19.994Z,4716.00
2018-08-18T08:26:20.022Z,4728.00
2018-08-18T08:28:13.134Z,4760.00
2018-08-18T08:29:13.140Z,4788.00
2018-08-18T08:31:06.273Z,4836.00
2018-08-18T08:32:06.298Z,4864.00
2018-08-18T08:33:59.236Z,4884.00
2018-08-18T08:34:59.244Z,4860.00
2018-08-18T08:36:52.271Z,4872.00
2018-08-18T08:37:52.199Z,4916.00
2018-08-18T08:39:45.343Z,4956.00
2018-08-18T08:40:45.371Z,4964.00
2018-08-18T08:42:38.319Z,4916.00
2018-08-18T08:43:38.326Z,4944.00
2018-08-18T08:45:31.241Z,5008.00
2018-08-18T08:46:31.265Z,5004.00
2018-08-18T08:48:24.203Z,5052.00
2018-08-18T08:49:24.212Z,5056.00
2018-08-18T08:51:17.270Z,5060.00
2018-08-18T08:52:17.296Z,5080.00
2018-08-18T08:54:10.442Z,5056.00
2018-08-18T08:55:10.448Z,5044.00
2018-08-18T08:57:03.390Z,5056.00
2018-08-18T08:58:03.399Z,5092.00
2018-08-18T08:59:56.314Z,5092.00
2018-08-18T09:00:56.340Z,5048.00
2018-08-18T09:02:49.504Z,4984.00
2018-08-18T09:03:49.515Z,4940.00
2018-08-18T09:05:42.430Z,4860.00
2018-08-18T09:06:42.460Z,4780.00
2018-08-18T09:08:35.396Z,4720.00
2018-08-18T09:09:35.403Z,4732.00
2018-08-18T09:11:28.317Z,4784.00
2018-08-18T09:12:28.347Z,4900.00
2018-08-18T09:14:21.282Z,4988.00
2018-08-18T09:15:21.292Z,5004.00
2018-08-18T09:17:14.242Z,4992.00
2018-08-18T09:18:14.246Z,5004.00
2018-08-18T09:20:07.171Z,4996.00
2018-08-18T09:21:07.193Z,5012.00
2018-08-18T09:23:00.137Z,4960.00
2018-08-18T09:24:00.144Z,4956.00
2018-08-18T09:25:53.264Z,4976.00
2018-08-18T09:26:53.243Z,4968.00
2018-08-18T09:28:46.192Z,4936.00
2018-08-18T09:29:46.190Z,4944.00
2018-08-18T09:31:39.107Z,4932.00
2018-08-18T09:32:39.132Z,4936.00
2018-08-18T09:34:32.069Z,4916.00
2018-08-18T09:35:32.079Z,4920.00
2018-08-18T09:37:25.020Z,4856.00
2018-08-18T09:38:25.021Z,4796.00
2018-08-18T09:40:17.946Z,4708.00
2018-08-18T09:41:17.972Z,4688.00
2018-08-18T09:43:10.918Z,4644.00
2018-08-18T09:44:10.923Z,4632.00
2018-08-18T09:46:03.840Z,4552.00
2018-08-18T09:47:03.867Z,4564.00
2018-08-18T09:48:56.804Z,4664.00
2018-08-18T09:49:56.813Z,4780.00
2018-08-18T09:51:49.730Z,5284.00
2018-08-18T09:52:49.760Z,5252.00
2018-08-18T09:54:42.699Z,5060.00
2018-08-18T09:55:42.702Z,4684.00
2018-08-18T09:57:35.640Z,4880.00
2018-08-18T09:58:35.691Z,5312.00
2018-08-18T10:00:29.081Z,5424.00
2018-08-18T10:01:29.081Z,5116.00
2018-08-18T10:03:22.892Z,5364.00
2018-08-18T10:04:22.893Z,6312.00
2018-08-18T10:06:16.036Z,6308.00
2018-08-18T10:07:16.044Z,6412.00
2018-08-18T10:09:08.983Z,5408.00
2018-08-18T10:10:08.987Z,5160.00
2018-08-18T10:12:01.964Z,5360.00
2018-08-18T10:13:02.481Z,4988.00
2018-08-18T10:14:55.095Z,5216.00
2018-08-18T10:15:55.112Z,5364.00
2018-08-18T10:17:48.043Z,5476.00
2018-08-18T10:18:48.050Z,5276.00
2018-08-18T10:20:40.967Z,6720.00
2018-08-18T10:21:40.993Z,7748.00
2018-08-18T10:23:33.933Z,8412.00
2018-08-18T10:24:33.939Z,8728.00
2018-08-18T10:26:27.005Z,8552.00
2018-08-18T10:27:27.117Z,7892.00
2018-08-18T10:29:19.970Z,6804.00
2018-08-18T10:30:19.976Z,6440.00
2018-08-18T10:32:12.896Z,6428.00
2018-08-18T10:33:12.942Z,6552.00
2018-08-18T10:35:05.869Z,5252.00
2018-08-18T10:36:05.873Z,4876.00
2018-08-18T10:37:59.042Z,4620.00
2018-08-18T10:38:59.042Z,4132.00
2018-08-18T10:40:52.012Z,5028.00
2018-08-18T10:41:52.147Z,5596.00
2018-08-18T10:43:44.975Z,5464.00
2018-08-18T10:44:44.982Z,5216.00
2018-08-18T10:46:37.898Z,5444.00
2018-08-18T10:47:37.930Z,5812.00
2018-08-18T10:49:30.869Z,6116.00
2018-08-18T10:50:30.874Z,5868.00
2018-08-18T10:52:23.801Z,5396.00
2018-08-18T10:53:23.822Z,5148.00
2018-08-18T10:55:17.050Z,4616.00
2018-08-18T10:56:16.976Z,4600.00
2018-08-18T10:58:09.919Z,4348.00
2018-08-18T10:59:09.924Z,4404.00
2018-08-18T11:01:02.848Z,4356.00
2018-08-18T11:02:02.873Z,4292.00
2018-08-18T11:03:55.879Z,4220.00
2018-08-18T11:04:55.819Z,4332.00
2018-08-18T11:06:48.738Z,4216.00
2018-08-18T11:07:48.763Z,4148.00
2018-08-18T11:09:41.944Z,4000.00
2018-08-18T11:10:41.953Z,4032.00
2018-08-18T11:12:34.871Z,4104.00
2018-08-18T11:13:34.900Z,4160.00
2018-08-18T11:15:28.342Z,4144.00
2018-08-18T11:16:28.337Z,4088.00
2018-08-18T11:18:21.279Z,3904.00
2018-08-18T11:19:21.286Z,3892.00
2018-08-18T11:21:14.210Z,3904.00
2018-08-18T11:22:14.235Z,3872.00
2018-08-18T11:24:07.191Z,3928.00
2018-08-18T11:25:07.198Z,3960.00
2018-08-18T11:27:00.227Z,3924.00
2018-08-18T11:28:00.144Z,3904.00
2018-08-18T11:29:53.092Z,4004.00
2018-08-18T11:30:53.095Z,4504.00
2018-08-18T11:32:46.028Z,4636.00
2018-08-18T11:33:46.056Z,4432.00
2018-08-18T11:35:39.149Z,4100.00
2018-08-18T11:36:39.158Z,3920.00
2018-08-18T11:38:32.304Z,3876.00
2018-08-18T11:39:32.311Z,3872.00
2018-08-18T11:41:25.282Z,3788.00
2018-08-18T11:42:25.258Z,3748.00
2018-08-18T11:44:18.195Z,3720.00
2018-08-18T11:45:18.204Z,3696.00
2018-08-18T11:47:11.185Z,3672.00
2018-08-18T11:48:11.154Z,3652.00
2018-08-18T11:50:04.095Z,3632.00
2018-08-18T11:51:04.098Z,3628.00
2018-08-18T11:52:57.016Z,3664.00
2018-08-18T11:53:57.045Z,3652.00
2018-08-18T11:55:49.984Z,3652.00
2018-08-18T11:56:49.992Z,3648.00
2018-08-18T11:58:42.939Z,3632.00
2018-08-18T11:59:42.944Z,3628.00
2018-08-18T12:01:35.867Z,3604.00
2018-08-18T12:02:35.895Z,3612.00
2018-08-18T12:04:28.843Z,3564.00
2018-08-18T12:05:28.850Z,3588.00
2018-08-18T12:07:21.768Z,3600.00
2018-08-18T12:08:21.834Z,3576.00
2018-08-18T12:10:14.744Z,3552.00
2018-08-18T12:11:14.750Z,3532.00
2018-08-18T12:13:07.667Z,3540.00
2018-08-18T12:14:07.697Z,3564.00
2018-08-18T12:16:00.642Z,3588.00
2018-08-18T12:17:00.657Z,3596.00
2018-08-18T12:18:53.685Z,3584.00
2018-08-18T12:19:53.646Z,3604.00
2018-08-18T12:21:46.514Z,3572.00
2018-08-18T12:22:46.540Z,3560.00
2018-08-18T12:24:39.482Z,3548.00
2018-08-18T12:25:39.540Z,3532.00
2018-08-18T12:27:32.408Z,3508.00
2018-08-18T12:28:32.435Z,3540.00
2018-08-18T12:30:25.374Z,3596.00
2018-08-18T12:31:25.385Z,3604.00
2018-08-18T12:33:18.305Z,3596.00
2018-08-18T12:34:18.329Z,3584.00
2018-08-18T12:36:11.403Z,3600.00
2018-08-18T12:37:11.326Z,3568.00
2018-08-18T12:39:04.313Z,3476.00
2018-08-18T12:40:04.256Z,3452.00
2018-08-18T12:41:57.144Z,3420.00
2018-08-18T12:42:57.170Z,3388.00
2018-08-18T12:44:50.216Z,3384.00
2018-08-18T12:45:50.148Z,3380.00
2018-08-18T12:47:43.043Z,3360.00
2018-08-18T12:48:43.068Z,3376.00
2018-08-18T12:50:36.068Z,3424.00
2018-08-18T12:51:36.031Z,3432.00
2018-08-18T12:53:28.940Z,3440.00
2018-08-18T12:54:28.970Z,3436.00
2018-08-18T12:56:21.917Z,3456.00
2018-08-18T12:57:21.919Z,3460.00
2018-08-18T12:59:14.876Z,3468.00
2018-08-18T13:00:14.866Z,3448.00
2018-08-18T13:02:07.803Z,3460.00
2018-08-18T13:03:07.832Z,3472.00
2018-08-18T13:05:00.929Z,3476.00
2018-08-18T13:06:00.942Z,3468.00
2018-08-18T13:07:54.073Z,3444.00
2018-08-18T13:08:54.111Z,3460.00
2018-08-18T13:10:47.092Z,3472.00
2018-08-18T13:11:47.109Z,3480.00
2018-08-18T13:13:39.976Z,3460.00
2018-08-18T13:14:40.003Z,3448.00
2018-08-18T13:16:32.945Z,3456.00
2018-08-18T13:17:32.954Z,3448.00
2018-08-18T13:19:25.914Z,3456.00
2018-08-18T13:20:25.906Z,3460.00
2018-08-18T13:22:19.034Z,3484.00
2018-08-18T13:23:19.060Z,3472.00
2018-08-18T13:25:12.001Z,3368.00
2018-08-18T13:26:12.009Z,3332.00
2018-08-18T13:28:04.931Z,3320.00
2018-08-18T13:29:04.975Z,3336.00
2018-08-18T13:30:58.444Z,3368.00
2018-08-18T13:31:58.404Z,3360.00
2018-08-18T13:33:51.329Z,3376.00
2018-08-18T13:34:51.354Z,3392.00
2018-08-18T13:36:44.303Z,3408.00
2018-08-18T13:37:44.316Z,3400.00
2018-08-18T13:39:37.262Z,3424.00
2018-08-18T13:40:37.263Z,3456.00
2018-08-18T13:42:30.178Z,3456.00
2018-08-18T13:43:30.204Z,3460.00
2018-08-18T13:45:23.152Z,3520.00
2018-08-18T13:46:23.156Z,3548.00
2018-08-18T13:48:16.082Z,3596.00
2018-08-18T13:49:16.108Z,3608.00
2018-08-18T13:51:09.068Z,3648.00
2018-08-18T13:52:09.068Z,3668.00
2018-08-18T13:54:02.148Z,3728.00
2018-08-18T13:55:02.193Z,3744.00
2018-08-18T13:56:55.120Z,3776.00
2018-08-18T13:57:55.125Z,3804.00
2018-08-18T13:59:48.074Z,3812.00
2018-08-18T14:00:48.073Z,3844.00
2018-08-18T14:02:41.024Z,3920.00
2018-08-18T14:03:41.028Z,3920.00
2018-08-18T14:05:33.976Z,3932.00
2018-08-18T14:06:33.978Z,3936.00
2018-08-18T14:08:26.899Z,4016.00
2018-08-18T14:09:26.926Z,4048.00
2018-08-18T14:11:20.092Z,4104.00
2018-08-18T14:12:20.110Z,4100.00
2018-08-18T14:14:13.022Z,4108.00
2018-08-18T14:15:13.083Z,4176.00
2018-08-18T14:17:05.998Z,4156.00
2018-08-18T14:18:06.018Z,4136.00
2018-08-18T14:19:58.992Z,4180.00
2018-08-18T14:20:58.951Z,4164.00
2018-08-18T14:22:51.876Z,4088.00
2018-08-18T14:23:51.902Z,3992.00
2018-08-18T14:25:44.894Z,3916.00
2018-08-18T14:26:44.855Z,3804.00
2018-08-18T14:28:37.841Z,3764.00
2018-08-18T14:29:37.804Z,3680.00
2018-08-18T14:31:30.779Z,3652.00
2018-08-18T14:32:30.762Z,3700.00
2018-08-18T14:34:23.815Z,3736.00
2018-08-18T14:35:23.705Z,3732.00
2018-08-18T14:37:16.653Z,3636.00
2018-08-18T14:38:16.657Z,3552.00
2018-08-18T14:40:10.074Z,3516.00
2018-08-18T14:41:10.101Z,3540.00
2018-08-18T14:43:03.052Z,3728.00
2018-08-18T14:44:03.052Z,3784.00
2018-08-18T14:45:55.999Z,3880.00
2018-08-18T14:46:56.044Z,3920.00
2018-08-18T14:48:48.921Z,3964.00
2018-08-18T14:49:48.953Z,3976.00
2018-08-18T14:51:41.891Z,3988.00
2018-08-18T14:52:41.899Z,3996.00
2018-08-18T14:54:34.866Z,4008.00
2018-08-18T14:55:34.849Z,4036.00
2018-08-18T14:57:27.791Z,4112.00
2018-08-18T14:58:27.798Z,4144.00
2018-08-18T15:00:20.753Z,4204.00
2018-08-18T15:01:20.751Z,4264.00
2018-08-18T15:03:13.799Z,4332.00
2018-08-18T15:04:13.747Z,4376.00
2018-08-18T15:06:06.650Z,4460.00
2018-08-18T15:07:06.659Z,4500.00
2018-08-18T15:08:59.609Z,4556.00
2018-08-18T15:09:59.611Z,4612.00
2018-08-18T15:11:52.561Z,4684.00
2018-08-18T15:12:52.559Z,4644.00
2018-08-18T15:14:45.485Z,4580.00
2018-08-18T15:15:45.623Z,4588.00
2018-08-18T15:17:38.495Z,4584.00
2018-08-18T15:18:38.467Z,4588.00
2018-08-18T15:20:31.388Z,4652.00
2018-08-18T15:21:31.418Z,4668.00
2018-08-18T15:23:24.364Z,4664.00
2018-08-18T15:24:24.375Z,4660.00
2018-08-18T15:26:17.313Z,4664.00
2018-08-18T15:27:17.322Z,4652.00
2018-08-18T15:29:10.245Z,4640.00
2018-08-18T15:30:10.271Z,4632.00
2018-08-18T15:32:03.220Z,4632.00
2018-08-18T15:33:03.224Z,4620.00
2018-08-18T15:34:56.153Z,4576.00
2018-08-18T15:35:56.181Z,4560.00
2018-08-18T15:37:49.122Z,4532.00
2018-08-18T15:38:49.132Z,4528.00
2018-08-18T15:40:42.051Z,4512.00
2018-08-18T15:41:42.080Z,4504.00
2018-08-18T15:43:35.031Z,4532.00
2018-08-18T15:44:35.030Z,4552.00
2018-08-18T15:46:27.969Z,4560.00
2018-08-18T15:47:27.982Z,4556.00
2018-08-18T15:49:20.923Z,4504.00
2018-08-18T15:50:20.937Z,4484.00
2018-08-18T15:52:13.896Z,4424.00
2018-08-18T15:53:13.903Z,4380.00
2018-08-18T15:55:06.825Z,4340.00
2018-08-18T15:56:06.879Z,4308.00
2018-08-18T15:57:59.826Z,4316.00
2018-08-18T15:58:59.834Z,4316.00
2018-08-18T16:00:52.807Z,4320.00
2018-08-18T16:01:52.791Z,4304.00
2018-08-18T16:03:45.718Z,4248.00
2018-08-18T16:04:45.745Z,4204.00
2018-08-18T16:06:39.564Z,4144.00
2018-08-18T16:07:39.401Z,4136.00
2018-08-18T16:09:32.277Z,4108.00
2018-08-18T16:10:32.306Z,4092.00
2018-08-18T16:12:25.252Z,4080.00
2018-08-18T16:13:25.259Z,4068.00
2018-08-18T16:15:18.178Z,4020.00
2018-08-18T16:16:18.211Z,4012.00
2018-08-18T16:18:11.157Z,4008.00
2018-08-18T16:19:11.164Z,3996.00
2018-08-18T16:21:04.089Z,3980.00
2018-08-18T16:22:04.117Z,3972.00
2018-08-18T16:23:57.067Z,3960.00
2018-08-18T16:24:57.069Z,3940.00
2018-08-18T16:26:50.158Z,3900.00
2018-08-18T16:27:50.182Z,3864.00
2018-08-18T16:29:43.086Z,3788.00
2018-08-18T16:30:43.114Z,3732.00
2018-08-18T16:32:36.054Z,3640.00
2018-08-18T16:33:36.062Z,3592.00
2018-08-18T16:35:28.985Z,3512.00
2018-08-18T16:36:29.013Z,3488.00
2018-08-18T16:38:21.955Z,3436.00
2018-08-18T16:39:21.961Z,3428.00
2018-08-18T16:41:14.882Z,3404.00
2018-08-18T16:42:14.910Z,3368.00
2018-08-18T16:44:07.879Z,3284.00
2018-08-18T16:45:07.861Z,3208.00
2018-08-18T16:47:00.835Z,3072.00
2018-08-18T16:48:00.974Z,3000.00
2018-08-18T16:49:53.789Z,2848.00
2018-08-18T16:50:53.793Z,2772.00
2018-08-18T16:52:46.737Z,2688.00
2018-08-18T16:53:46.805Z,2668.00
2018-08-18T16:55:39.662Z,2636.00
2018-08-18T16:56:39.692Z,2608.00
2018-08-18T16:58:32.632Z,2552.00
2018-08-18T16:59:32.639Z,2524.00
2018-08-18T17:01:25.569Z,2456.00
2018-08-18T17:02:25.588Z,2428.00
2018-08-18T17:04:18.533Z,2332.00
2018-08-18T17:05:18.539Z,2304.00
2018-08-18T17:07:11.480Z,2300.00
2018-08-18T17:08:11.489Z,2280.00
2018-08-18T17:10:04.409Z,2232.00
2018-08-18T17:11:04.439Z,2192.00
2018-08-18T17:12:57.380Z,2136.00
2018-08-18T17:13:57.396Z,2112.00
2018-08-18T17:15:50.462Z,2076.00
2018-08-18T17:16:50.487Z,2048.00
2018-08-18T17:18:43.432Z,1980.00
2018-08-18T17:19:43.433Z,1956.00
2018-08-18T17:21:36.355Z,1916.00
2018-08-18T17:22:36.398Z,1884.00
2018-08-18T17:24:29.327Z,1844.00
2018-08-18T17:25:29.327Z,1820.00
2018-08-18T17:27:22.268Z,1784.00
2018-08-18T17:28:22.274Z,1760.00
2018-08-18T17:30:15.217Z,1724.00
2018-08-18T17:31:15.220Z,1708.00
2018-08-18T17:33:08.158Z,1692.00
2018-08-18T17:34:08.168Z,1688.00
2018-08-18T17:36:01.084Z,1672.00
2018-08-18T17:37:01.119Z,1672.00
2018-08-18T17:38:54.076Z,1680.00
2018-08-18T17:39:54.089Z,1684.00
2018-08-18T17:41:47.021Z,1700.00
2018-08-18T17:42:47.045Z,1708.00
2018-08-18T17:44:39.990Z,1736.00
2018-08-18T17:45:39.994Z,1744.00
2018-08-18T17:47:32.931Z,1708.00